sensor_id;sensor_type;location;lat;lon;timestamp;P1;durP1;ratioP1;P2;durP2;ratioP2
54679;SDS011;40578;53.178;5.846;2023-07-31T00:00:06;9.33;;;2.33;;
54679;SDS011;40578;53.178;5.846;2023-07-31T00:02:34;10.18;;;3.17;;
54679;SDS011;40578;53.178;5.846;2023-07-31T00:05:00;8.55;;;2.38;;
54679;SDS011;40578;53.178;5.846;2023-07-31T00:07:26;7.30;;;2.30;;
54679;SDS011;40578;53.178;5.846;2023-07-31T00:09:52;8.77;;;2.20;;
54679;SDS011;40578;53.178;5.846;2023-07-31T00:12:18;8.10;;;2.60;;
54679;SDS011;40578;53.178;5.846;2023-07-31T00:14:45;10.35;;;2.67;;
54679;SDS011;40578;53.178;5.846;2023-07-31T00:17:11;9.60;;;2.95;;
54679;SDS011;40578;53.178;5.846;2023-07-31T00:19:36;10.50;;;2.87;;
54679;SDS011;40578;53.178;5.846;2023-07-31T00:22:02;7.17;;;2.60;;
54679;SDS011;40578;53.178;5.846;2023-07-31T00:24:28;6.10;;;2.40;;
54679;SDS011;40578;53.178;5.846;2023-07-31T00:26:53;8.43;;;2.53;;
54679;SDS011;40578;53.178;5.846;2023-07-31T00:29:19;9.33;;;2.83;;
54679;SDS011;40578;53.178;5.846;2023-07-31T00:31:44;8.10;;;2.63;;
54679;SDS011;40578;53.178;5.846;2023-07-31T00:34:10;12.60;;;2.80;;
54679;SDS011;40578;53.178;5.846;2023-07-31T00:36:36;10.00;;;3.00;;
54679;SDS011;40578;53.178;5.846;2023-07-31T00:39:01;6.90;;;2.67;;
54679;SDS011;40578;53.178;5.846;2023-07-31T00:41:27;9.47;;;2.87;;
54679;SDS011;40578;53.178;5.846;2023-07-31T00:43:53;6.70;;;2.37;;
54679;SDS011;40578;53.178;5.846;2023-07-31T00:46:18;12.40;;;3.43;;
54679;SDS011;40578;53.178;5.846;2023-07-31T00:48:45;5.88;;;2.72;;
54679;SDS011;40578;53.178;5.846;2023-07-31T00:51:11;9.20;;;3.30;;
54679;SDS011;40578;53.178;5.846;2023-07-31T00:53:36;6.60;;;2.97;;
54679;SDS011;40578;53.178;5.846;2023-07-31T00:56:03;10.70;;;3.28;;
54679;SDS011;40578;53.178;5.846;2023-07-31T00:58:29;9.35;;;3.47;;
54679;SDS011;40578;53.178;5.846;2023-07-31T01:00:55;8.87;;;3.00;;
54679;SDS011;40578;53.178;5.846;2023-07-31T01:03:20;6.97;;;2.40;;
54679;SDS011;40578;53.178;5.846;2023-07-31T01:11:52;9.93;;;2.50;;
54679;SDS011;40578;53.178;5.846;2023-07-31T01:14:21;6.93;;;2.28;;
54679;SDS011;40578;53.178;5.846;2023-07-31T01:16:47;11.13;;;3.20;;
54679;SDS011;40578;53.178;5.846;2023-07-31T01:19:13;9.27;;;2.57;;
54679;SDS011;40578;53.178;5.846;2023-07-31T01:21:57;8.02;;;2.50;;
54679;SDS011;40578;53.178;5.846;2023-07-31T01:24:35;7.60;;;2.20;;
54679;SDS011;40578;53.178;5.846;2023-07-31T01:27:23;8.30;;;2.00;;
54679;SDS011;40578;53.178;5.846;2023-07-31T01:32:25;8.43;;;2.30;;
54679;SDS011;40578;53.178;5.846;2023-07-31T01:34:54;9.82;;;2.33;;
54679;SDS011;40578;53.178;5.846;2023-07-31T01:37:21;8.02;;;2.30;;
54679;SDS011;40578;53.178;5.846;2023-07-31T01:39:46;7.70;;;2.27;;
54679;SDS011;40578;53.178;5.846;2023-07-31T01:42:12;10.07;;;2.43;;
54679;SDS011;40578;53.178;5.846;2023-07-31T01:44:37;7.30;;;2.10;;
54679;SDS011;40578;53.178;5.846;2023-07-31T01:47:03;7.00;;;2.53;;
54679;SDS011;40578;53.178;5.846;2023-07-31T01:49:29;3.70;;;2.17;;
54679;SDS011;40578;53.178;5.846;2023-07-31T01:51:54;6.53;;;2.10;;
54679;SDS011;40578;53.178;5.846;2023-07-31T01:54:20;6.73;;;2.50;;
54679;SDS011;40578;53.178;5.846;2023-07-31T01:56:48;6.40;;;2.30;;
54679;SDS011;40578;53.178;5.846;2023-07-31T01:59:13;9.43;;;2.50;;
54679;SDS011;40578;53.178;5.846;2023-07-31T02:01:39;7.47;;;2.60;;
54679;SDS011;40578;53.178;5.846;2023-07-31T02:04:04;6.83;;;2.67;;
54679;SDS011;40578;53.178;5.846;2023-07-31T02:06:30;6.37;;;2.63;;
54679;SDS011;40578;53.178;5.846;2023-07-31T02:08:56;8.27;;;2.50;;
54679;SDS011;40578;53.178;5.846;2023-07-31T02:11:22;9.83;;;2.80;;
54679;SDS011;40578;53.178;5.846;2023-07-31T02:13:47;7.73;;;2.80;;
54679;SDS011;40578;53.178;5.846;2023-07-31T02:16:13;8.30;;;2.40;;
54679;SDS011;40578;53.178;5.846;2023-07-31T02:18:38;7.37;;;2.60;;
54679;SDS011;40578;53.178;5.846;2023-07-31T02:21:04;6.20;;;2.60;;
54679;SDS011;40578;53.178;5.846;2023-07-31T02:23:29;4.47;;;2.47;;
54679;SDS011;40578;53.178;5.846;2023-07-31T02:25:55;10.63;;;3.13;;
54679;SDS011;40578;53.178;5.846;2023-07-31T02:28:20;6.87;;;2.40;;
54679;SDS011;40578;53.178;5.846;2023-07-31T02:30:46;7.73;;;2.57;;
54679;SDS011;40578;53.178;5.846;2023-07-31T02:33:12;6.73;;;2.57;;
54679;SDS011;40578;53.178;5.846;2023-07-31T02:35:37;6.87;;;2.90;;
54679;SDS011;40578;53.178;5.846;2023-07-31T02:38:03;5.27;;;2.60;;
54679;SDS011;40578;53.178;5.846;2023-07-31T02:40:28;3.80;;;2.50;;
54679;SDS011;40578;53.178;5.846;2023-07-31T02:42:54;10.80;;;2.93;;
54679;SDS011;40578;53.178;5.846;2023-07-31T02:45:20;8.47;;;2.80;;
54679;SDS011;40578;53.178;5.846;2023-07-31T02:47:45;6.20;;;2.63;;
54679;SDS011;40578;53.178;5.846;2023-07-31T02:50:11;7.60;;;2.33;;
54679;SDS011;40578;53.178;5.846;2023-07-31T02:52:36;5.20;;;2.70;;
54679;SDS011;40578;53.178;5.846;2023-07-31T02:55:02;5.15;;;2.60;;
54679;SDS011;40578;53.178;5.846;2023-07-31T02:57:28;8.50;;;3.00;;
54679;SDS011;40578;53.178;5.846;2023-07-31T02:59:53;8.23;;;2.90;;
54679;SDS011;40578;53.178;5.846;2023-07-31T03:02:19;6.60;;;2.63;;
54679;SDS011;40578;53.178;5.846;2023-07-31T03:04:45;5.83;;;2.50;;
54679;SDS011;40578;53.178;5.846;2023-07-31T03:07:10;4.80;;;2.00;;
54679;SDS011;40578;53.178;5.846;2023-07-31T03:09:36;4.50;;;2.27;;
54679;SDS011;40578;53.178;5.846;2023-07-31T03:12:02;4.50;;;1.93;;
54679;SDS011;40578;53.178;5.846;2023-07-31T03:14:28;6.72;;;2.00;;
54679;SDS011;40578;53.178;5.846;2023-07-31T03:16:54;4.77;;;1.90;;
54679;SDS011;40578;53.178;5.846;2023-07-31T03:19:19;4.23;;;1.73;;
54679;SDS011;40578;53.178;5.846;2023-07-31T03:21:45;3.03;;;1.53;;
54679;SDS011;40578;53.178;5.846;2023-07-31T03:24:11;3.53;;;1.80;;
54679;SDS011;40578;53.178;5.846;2023-07-31T03:26:37;4.00;;;1.60;;
54679;SDS011;40578;53.178;5.846;2023-07-31T03:29:03;3.75;;;1.70;;
54679;SDS011;40578;53.178;5.846;2023-07-31T03:31:28;4.97;;;1.63;;
54679;SDS011;40578;53.178;5.846;2023-07-31T03:33:54;4.77;;;1.70;;
54679;SDS011;40578;53.178;5.846;2023-07-31T03:36:19;7.57;;;1.87;;
54679;SDS011;40578;53.178;5.846;2023-07-31T03:38:46;4.77;;;1.63;;
54679;SDS011;40578;53.178;5.846;2023-07-31T03:41:11;2.85;;;1.35;;
54679;SDS011;40578;53.178;5.846;2023-07-31T03:43:37;4.20;;;1.83;;
54679;SDS011;40578;53.178;5.846;2023-07-31T03:46:03;3.07;;;1.80;;
54679;SDS011;40578;53.178;5.846;2023-07-31T03:48:28;3.50;;;1.70;;
54679;SDS011;40578;53.178;5.846;2023-07-31T03:50:54;2.40;;;1.30;;
54679;SDS011;40578;53.178;5.846;2023-07-31T03:53:20;3.45;;;1.23;;
54679;SDS011;40578;53.178;5.846;2023-07-31T03:55:46;3.00;;;1.37;;
54679;SDS011;40578;53.178;5.846;2023-07-31T03:58:11;3.57;;;1.23;;
54679;SDS011;40578;53.178;5.846;2023-07-31T04:00:37;3.50;;;1.77;;
54679;SDS011;40578;53.178;5.846;2023-07-31T04:03:05;3.55;;;1.60;;
54679;SDS011;40578;53.178;5.846;2023-07-31T04:05:31;2.70;;;1.30;;
54679;SDS011;40578;53.178;5.846;2023-07-31T04:07:57;4.05;;;1.42;;
54679;SDS011;40578;53.178;5.846;2023-07-31T04:10:23;8.13;;;1.53;;
54679;SDS011;40578;53.178;5.846;2023-07-31T04:12:49;5.17;;;1.77;;
54679;SDS011;40578;53.178;5.846;2023-07-31T04:15:14;3.27;;;1.60;;
54679;SDS011;40578;53.178;5.846;2023-07-31T04:17:40;3.33;;;1.60;;
54679;SDS011;40578;53.178;5.846;2023-07-31T04:20:06;3.30;;;1.60;;
54679;SDS011;40578;53.178;5.846;2023-07-31T04:22:32;4.13;;;1.40;;
54679;SDS011;40578;53.178;5.846;2023-07-31T04:24:57;5.10;;;1.80;;
54679;SDS011;40578;53.178;5.846;2023-07-31T04:27:23;4.00;;;2.13;;
54679;SDS011;40578;53.178;5.846;2023-07-31T04:29:48;7.70;;;2.23;;
54679;SDS011;40578;53.178;5.846;2023-07-31T04:32:14;6.60;;;2.50;;
54679;SDS011;40578;53.178;5.846;2023-07-31T04:34:43;7.88;;;3.13;;
54679;SDS011;40578;53.178;5.846;2023-07-31T04:37:08;14.45;;;3.92;;
54679;SDS011;40578;53.178;5.846;2023-07-31T04:39:34;9.17;;;3.97;;
54679;SDS011;40578;53.178;5.846;2023-07-31T04:41:59;14.83;;;4.77;;
54679;SDS011;40578;53.178;5.846;2023-07-31T04:44:25;13.70;;;4.57;;
54679;SDS011;40578;53.178;5.846;2023-07-31T04:46:51;16.37;;;4.43;;
54679;SDS011;40578;53.178;5.846;2023-07-31T04:49:16;12.83;;;5.37;;
54679;SDS011;40578;53.178;5.846;2023-07-31T04:51:42;17.27;;;4.80;;
54679;SDS011;40578;53.178;5.846;2023-07-31T04:54:07;13.43;;;4.87;;
54679;SDS011;40578;53.178;5.846;2023-07-31T04:56:33;11.57;;;4.27;;
54679;SDS011;40578;53.178;5.846;2023-07-31T04:58:58;13.40;;;4.23;;
54679;SDS011;40578;53.178;5.846;2023-07-31T05:01:24;16.30;;;4.00;;
54679;SDS011;40578;53.178;5.846;2023-07-31T05:03:50;13.15;;;4.15;;
54679;SDS011;40578;53.178;5.846;2023-07-31T05:06:16;12.33;;;4.10;;
54679;SDS011;40578;53.178;5.846;2023-07-31T05:08:41;12.57;;;4.83;;
54679;SDS011;40578;53.178;5.846;2023-07-31T05:11:07;12.03;;;4.40;;
54679;SDS011;40578;53.178;5.846;2023-07-31T05:13:32;14.53;;;4.57;;
54679;SDS011;40578;53.178;5.846;2023-07-31T05:15:58;12.80;;;4.97;;
54679;SDS011;40578;53.178;5.846;2023-07-31T05:18:23;14.63;;;4.57;;
54679;SDS011;40578;53.178;5.846;2023-07-31T05:20:49;13.37;;;5.50;;
54679;SDS011;40578;53.178;5.846;2023-07-31T05:23:15;12.63;;;4.67;;
54679;SDS011;40578;53.178;5.846;2023-07-31T05:25:40;20.30;;;4.93;;
54679;SDS011;40578;53.178;5.846;2023-07-31T05:28:06;15.73;;;6.33;;
54679;SDS011;40578;53.178;5.846;2023-07-31T05:30:31;20.90;;;7.27;;
54679;SDS011;40578;53.178;5.846;2023-07-31T05:32:57;19.93;;;5.80;;
54679;SDS011;40578;53.178;5.846;2023-07-31T05:35:23;24.43;;;6.23;;
54679;SDS011;40578;53.178;5.846;2023-07-31T05:37:48;23.23;;;7.10;;
54679;SDS011;40578;53.178;5.846;2023-07-31T05:40:14;19.57;;;7.57;;
54679;SDS011;40578;53.178;5.846;2023-07-31T05:42:39;20.17;;;6.47;;
54679;SDS011;40578;53.178;5.846;2023-07-31T05:45:06;18.40;;;6.30;;
54679;SDS011;40578;53.178;5.846;2023-07-31T05:47:32;17.02;;;6.57;;
54679;SDS011;40578;53.178;5.846;2023-07-31T05:49:57;16.43;;;5.10;;
54679;SDS011;40578;53.178;5.846;2023-07-31T05:52:23;15.87;;;4.87;;
54679;SDS011;40578;53.178;5.846;2023-07-31T05:54:48;10.50;;;4.70;;
54679;SDS011;40578;53.178;5.846;2023-07-31T05:57:14;15.13;;;4.93;;
54679;SDS011;40578;53.178;5.846;2023-07-31T05:59:39;11.77;;;4.97;;
54679;SDS011;40578;53.178;5.846;2023-07-31T06:02:05;14.33;;;4.63;;
54679;SDS011;40578;53.178;5.846;2023-07-31T06:04:31;9.73;;;3.90;;
54679;SDS011;40578;53.178;5.846;2023-07-31T06:06:56;8.63;;;3.47;;
54679;SDS011;40578;53.178;5.846;2023-07-31T06:09:22;8.93;;;3.70;;
54679;SDS011;40578;53.178;5.846;2023-07-31T06:11:48;11.13;;;3.40;;
54679;SDS011;40578;53.178;5.846;2023-07-31T06:14:13;14.00;;;3.87;;
54679;SDS011;40578;53.178;5.846;2023-07-31T06:16:39;10.60;;;4.03;;
54679;SDS011;40578;53.178;5.846;2023-07-31T06:19:05;12.33;;;3.80;;
54679;SDS011;40578;53.178;5.846;2023-07-31T06:23:58;17.27;;;5.75;;
54679;SDS011;40578;53.178;5.846;2023-07-31T06:26:23;19.17;;;5.47;;
54679;SDS011;40578;53.178;5.846;2023-07-31T06:28:49;21.57;;;6.70;;
54679;SDS011;40578;53.178;5.846;2023-07-31T06:31:14;18.30;;;5.90;;
54679;SDS011;40578;53.178;5.846;2023-07-31T06:33:40;17.67;;;5.50;;
54679;SDS011;40578;53.178;5.846;2023-07-31T06:36:05;19.00;;;4.73;;
54679;SDS011;40578;53.178;5.846;2023-07-31T06:38:31;16.47;;;5.83;;
54679;SDS011;40578;53.178;5.846;2023-07-31T06:40:57;13.97;;;4.80;;
54679;SDS011;40578;53.178;5.846;2023-07-31T06:43:22;14.20;;;5.23;;
54679;SDS011;40578;53.178;5.846;2023-07-31T06:45:48;14.73;;;5.07;;
54679;SDS011;40578;53.178;5.846;2023-07-31T06:48:16;17.17;;;5.22;;
54679;SDS011;40578;53.178;5.846;2023-07-31T06:50:42;11.60;;;4.05;;
54679;SDS011;40578;53.178;5.846;2023-07-31T06:53:07;11.97;;;3.93;;
54679;SDS011;40578;53.178;5.846;2023-07-31T06:55:33;10.70;;;3.90;;
54679;SDS011;40578;53.178;5.846;2023-07-31T06:57:59;9.63;;;3.57;;
54679;SDS011;40578;53.178;5.846;2023-07-31T07:00:24;8.13;;;3.27;;
54679;SDS011;40578;53.178;5.846;2023-07-31T07:02:50;8.13;;;3.07;;
54679;SDS011;40578;53.178;5.846;2023-07-31T07:05:16;9.07;;;3.60;;
54679;SDS011;40578;53.178;5.846;2023-07-31T07:07:42;10.05;;;3.97;;
54679;SDS011;40578;53.178;5.846;2023-07-31T07:10:08;8.50;;;3.30;;
54679;SDS011;40578;53.178;5.846;2023-07-31T07:12:34;8.07;;;3.13;;
54679;SDS011;40578;53.178;5.846;2023-07-31T07:15:00;9.35;;;3.28;;
54679;SDS011;40578;53.178;5.846;2023-07-31T07:17:27;10.83;;;2.90;;
54679;SDS011;40578;53.178;5.846;2023-07-31T07:22:18;11.05;;;3.10;;
54679;SDS011;40578;53.178;5.846;2023-07-31T07:24:44;4.77;;;2.10;;
54679;SDS011;40578;53.178;5.846;2023-07-31T07:27:10;6.30;;;2.13;;
54679;SDS011;40578;53.178;5.846;2023-07-31T07:29:35;4.93;;;2.10;;
54679;SDS011;40578;53.178;5.846;2023-07-31T07:32:02;9.57;;;2.10;;
54679;SDS011;40578;53.178;5.846;2023-07-31T07:34:28;4.38;;;2.17;;
54679;SDS011;40578;53.178;5.846;2023-07-31T07:36:54;5.23;;;2.33;;
54679;SDS011;40578;53.178;5.846;2023-07-31T07:39:20;3.97;;;1.85;;
54679;SDS011;40578;53.178;5.846;2023-07-31T07:41:46;4.53;;;1.50;;
54679;SDS011;40578;53.178;5.846;2023-07-31T07:44:12;4.72;;;1.33;;
54679;SDS011;40578;53.178;5.846;2023-07-31T07:46:38;2.65;;;1.40;;
54679;SDS011;40578;53.178;5.846;2023-07-31T07:49:04;3.40;;;1.30;;
54679;SDS011;40578;53.178;5.846;2023-07-31T07:51:29;4.30;;;1.70;;
54679;SDS011;40578;53.178;5.846;2023-07-31T07:53:56;2.28;;;1.23;;
54679;SDS011;40578;53.178;5.846;2023-07-31T07:56:23;2.03;;;1.20;;
54679;SDS011;40578;53.178;5.846;2023-07-31T07:58:49;2.55;;;1.10;;
54679;SDS011;40578;53.178;5.846;2023-07-31T08:01:15;2.88;;;1.27;;
54679;SDS011;40578;53.178;5.846;2023-07-31T08:03:41;2.95;;;1.30;;
54679;SDS011;40578;53.178;5.846;2023-07-31T08:06:07;2.40;;;1.20;;
54679;SDS011;40578;53.178;5.846;2023-07-31T08:08:34;2.60;;;1.00;;
54679;SDS011;40578;53.178;5.846;2023-07-31T08:11:00;2.83;;;0.70;;
54679;SDS011;40578;53.178;5.846;2023-07-31T08:13:26;1.53;;;0.80;;
54679;SDS011;40578;53.178;5.846;2023-07-31T08:15:51;1.63;;;0.67;;
54679;SDS011;40578;53.178;5.846;2023-07-31T08:18:17;1.17;;;0.73;;
54679;SDS011;40578;53.178;5.846;2023-07-31T08:20:42;2.27;;;0.80;;
54679;SDS011;40578;53.178;5.846;2023-07-31T08:23:08;4.23;;;0.90;;
54679;SDS011;40578;53.178;5.846;2023-07-31T08:25:34;5.27;;;0.97;;
54679;SDS011;40578;53.178;5.846;2023-07-31T08:28:01;6.53;;;1.40;;
54679;SDS011;40578;53.178;5.846;2023-07-31T08:30:27;2.95;;;1.00;;
54679;SDS011;40578;53.178;5.846;2023-07-31T08:32:52;5.23;;;1.53;;
54679;SDS011;40578;53.178;5.846;2023-07-31T08:35:18;5.93;;;1.30;;
54679;SDS011;40578;53.178;5.846;2023-07-31T08:37:43;3.33;;;1.23;;
54679;SDS011;40578;53.178;5.846;2023-07-31T08:40:09;5.23;;;1.43;;
54679;SDS011;40578;53.178;5.846;2023-07-31T08:42:43;4.90;;;1.50;;
54679;SDS011;40578;53.178;5.846;2023-07-31T08:45:15;4.20;;;1.25;;
54679;SDS011;40578;53.178;5.846;2023-07-31T08:47:44;5.10;;;1.20;;
54679;SDS011;40578;53.178;5.846;2023-07-31T08:50:20;1.73;;;0.75;;
54679;SDS011;40578;53.178;5.846;2023-07-31T08:52:47;1.73;;;0.75;;
54679;SDS011;40578;53.178;5.846;2023-07-31T08:55:14;3.60;;;0.85;;
54679;SDS011;40578;53.178;5.846;2023-07-31T08:57:39;5.00;;;0.90;;
54679;SDS011;40578;53.178;5.846;2023-07-31T09:00:07;2.67;;;1.13;;
54679;SDS011;40578;53.178;5.846;2023-07-31T09:02:36;4.07;;;1.02;;
54679;SDS011;40578;53.178;5.846;2023-07-31T09:05:06;3.42;;;0.88;;
54679;SDS011;40578;53.178;5.846;2023-07-31T09:07:35;4.82;;;1.10;;
54679;SDS011;40578;53.178;5.846;2023-07-31T09:10:02;4.88;;;1.30;;
54679;SDS011;40578;53.178;5.846;2023-07-31T09:12:28;4.47;;;0.80;;
54679;SDS011;40578;53.178;5.846;2023-07-31T09:14:54;2.07;;;0.73;;
54679;SDS011;40578;53.178;5.846;2023-07-31T09:17:31;12.70;;;0.70;;
54679;SDS011;40578;53.178;5.846;2023-07-31T09:19:58;3.03;;;0.70;;
54679;SDS011;40578;53.178;5.846;2023-07-31T09:22:37;4.18;;;0.73;;
54679;SDS011;40578;53.178;5.846;2023-07-31T09:25:13;1.95;;;0.70;;
54679;SDS011;40578;53.178;5.846;2023-07-31T09:27:56;1.75;;;0.70;;
54679;SDS011;40578;53.178;5.846;2023-07-31T09:30:23;1.65;;;0.63;;
54679;SDS011;40578;53.178;5.846;2023-07-31T09:32:50;2.38;;;0.75;;
54679;SDS011;40578;53.178;5.846;2023-07-31T09:37:55;4.43;;;0.90;;
54679;SDS011;40578;53.178;5.846;2023-07-31T09:42:58;4.60;;;1.20;;
54679;SDS011;40578;53.178;5.846;2023-07-31T09:45:28;3.65;;;1.02;;
54679;SDS011;40578;53.178;5.846;2023-07-31T09:47:54;6.43;;;1.42;;
54679;SDS011;40578;53.178;5.846;2023-07-31T09:50:21;3.55;;;1.15;;
54679;SDS011;40578;53.178;5.846;2023-07-31T09:52:49;3.35;;;1.00;;
54679;SDS011;40578;53.178;5.846;2023-07-31T09:57:42;4.78;;;1.40;;
54679;SDS011;40578;53.178;5.846;2023-07-31T10:00:10;3.85;;;1.20;;
54679;SDS011;40578;53.178;5.846;2023-07-31T10:02:37;2.55;;;1.30;;
54679;SDS011;40578;53.178;5.846;2023-07-31T10:07:30;4.47;;;1.40;;
54679;SDS011;40578;53.178;5.846;2023-07-31T10:09:59;3.22;;;1.10;;
54679;SDS011;40578;53.178;5.846;2023-07-31T10:12:28;6.05;;;1.67;;
54679;SDS011;40578;53.178;5.846;2023-07-31T10:14:54;5.70;;;1.58;;
54679;SDS011;40578;53.178;5.846;2023-07-31T10:17:21;6.32;;;1.95;;
54679;SDS011;40578;53.178;5.846;2023-07-31T10:19:51;4.30;;;1.70;;
54679;SDS011;40578;53.178;5.846;2023-07-31T10:22:18;5.80;;;1.88;;
54679;SDS011;40578;53.178;5.846;2023-07-31T10:24:44;4.78;;;1.80;;
54679;SDS011;40578;53.178;5.846;2023-07-31T10:27:11;4.93;;;2.40;;
54679;SDS011;40578;53.178;5.846;2023-07-31T10:29:37;6.00;;;1.70;;
54679;SDS011;40578;53.178;5.846;2023-07-31T10:32:04;11.95;;;2.35;;
54679;SDS011;40578;53.178;5.846;2023-07-31T10:34:34;10.38;;;2.13;;
54679;SDS011;40578;53.178;5.846;2023-07-31T10:39:54;2.70;;;1.50;;
54679;SDS011;40578;53.178;5.846;2023-07-31T10:42:20;5.05;;;1.70;;
54679;SDS011;40578;53.178;5.846;2023-07-31T10:44:56;4.32;;;2.10;;
54679;SDS011;40578;53.178;5.846;2023-07-31T10:47:26;5.20;;;1.75;;
54679;SDS011;40578;53.178;5.846;2023-07-31T10:49:51;3.30;;;1.80;;
54679;SDS011;40578;53.178;5.846;2023-07-31T10:52:20;4.13;;;1.77;;
54679;SDS011;40578;53.178;5.846;2023-07-31T10:55:13;3.10;;;1.70;;
54679;SDS011;40578;53.178;5.846;2023-07-31T10:57:44;4.47;;;1.67;;
54679;SDS011;40578;53.178;5.846;2023-07-31T11:00:18;3.05;;;1.73;;
54679;SDS011;40578;53.178;5.846;2023-07-31T11:02:55;4.72;;;1.90;;
54679;SDS011;40578;53.178;5.846;2023-07-31T11:05:40;3.90;;;1.95;;
54679;SDS011;40578;53.178;5.846;2023-07-31T11:08:22;4.22;;;1.77;;
54679;SDS011;40578;53.178;5.846;2023-07-31T11:11:11;4.97;;;1.98;;
54679;SDS011;40578;53.178;5.846;2023-07-31T11:13:40;6.85;;;2.20;;
54679;SDS011;40578;53.178;5.846;2023-07-31T11:16:06;6.68;;;1.95;;
54679;SDS011;40578;53.178;5.846;2023-07-31T11:18:32;7.00;;;2.25;;
54679;SDS011;40578;53.178;5.846;2023-07-31T11:20:58;6.20;;;2.10;;
54679;SDS011;40578;53.178;5.846;2023-07-31T11:23:24;6.18;;;2.17;;
54679;SDS011;40578;53.178;5.846;2023-07-31T11:25:50;5.53;;;2.03;;
54679;SDS011;40578;53.178;5.846;2023-07-31T11:28:16;4.30;;;1.73;;
54679;SDS011;40578;53.178;5.846;2023-07-31T11:30:44;7.57;;;2.40;;
54679;SDS011;40578;53.178;5.846;2023-07-31T11:33:11;4.00;;;1.75;;
54679;SDS011;40578;53.178;5.846;2023-07-31T11:35:43;7.85;;;2.10;;
54679;SDS011;40578;53.178;5.846;2023-07-31T11:38:30;3.80;;;2.00;;
54679;SDS011;40578;53.178;5.846;2023-07-31T11:40:58;4.70;;;1.60;;
54679;SDS011;40578;53.178;5.846;2023-07-31T11:43:25;4.43;;;1.40;;
54679;SDS011;40578;53.178;5.846;2023-07-31T11:45:52;2.90;;;1.33;;
54679;SDS011;40578;53.178;5.846;2023-07-31T11:48:23;3.83;;;1.40;;
54679;SDS011;40578;53.178;5.846;2023-07-31T11:50:51;3.97;;;1.20;;
54679;SDS011;40578;53.178;5.846;2023-07-31T11:53:20;5.20;;;2.13;;
54679;SDS011;40578;53.178;5.846;2023-07-31T11:55:51;5.18;;;2.08;;
54679;SDS011;40578;53.178;5.846;2023-07-31T11:58:17;4.80;;;2.03;;
54679;SDS011;40578;53.178;5.846;2023-07-31T12:00:45;10.00;;;2.75;;
54679;SDS011;40578;53.178;5.846;2023-07-31T12:03:11;6.15;;;2.67;;
54679;SDS011;40578;53.178;5.846;2023-07-31T12:05:37;9.02;;;3.03;;
54679;SDS011;40578;53.178;5.846;2023-07-31T12:08:08;4.57;;;2.47;;
54679;SDS011;40578;53.178;5.846;2023-07-31T12:10:36;12.65;;;3.60;;
54679;SDS011;40578;53.178;5.846;2023-07-31T12:13:05;7.03;;;2.77;;
54679;SDS011;40578;53.178;5.846;2023-07-31T12:18:00;9.82;;;2.90;;
54679;SDS011;40578;53.178;5.846;2023-07-31T12:20:29;10.63;;;3.17;;
54679;SDS011;40578;53.178;5.846;2023-07-31T12:25:22;8.43;;;3.47;;
54679;SDS011;40578;53.178;5.846;2023-07-31T12:27:48;10.70;;;3.50;;
54679;SDS011;40578;53.178;5.846;2023-07-31T12:33:14;9.40;;;2.67;;
54679;SDS011;40578;53.178;5.846;2023-07-31T12:35:44;9.57;;;3.00;;
54679;SDS011;40578;53.178;5.846;2023-07-31T12:38:11;8.55;;;2.88;;
54679;SDS011;40578;53.178;5.846;2023-07-31T12:40:38;12.82;;;3.22;;
54679;SDS011;40578;53.178;5.846;2023-07-31T12:43:05;11.20;;;3.60;;
54679;SDS011;40578;53.178;5.846;2023-07-31T12:45:31;12.07;;;3.13;;
54679;SDS011;40578;53.178;5.846;2023-07-31T12:47:58;9.13;;;2.97;;
54679;SDS011;40578;53.178;5.846;2023-07-31T12:50:24;8.80;;;3.33;;
54679;SDS011;40578;53.178;5.846;2023-07-31T12:52:50;10.65;;;2.70;;
54679;SDS011;40578;53.178;5.846;2023-07-31T12:57:43;10.45;;;2.90;;
54679;SDS011;40578;53.178;5.846;2023-07-31T13:00:09;11.50;;;3.30;;
54679;SDS011;40578;53.178;5.846;2023-07-31T13:05:01;7.90;;;2.88;;
54679;SDS011;40578;53.178;5.846;2023-07-31T13:07:27;10.70;;;3.30;;
54679;SDS011;40578;53.178;5.846;2023-07-31T13:09:53;7.40;;;3.20;;
54679;SDS011;40578;53.178;5.846;2023-07-31T13:12:18;6.97;;;2.70;;
54679;SDS011;40578;53.178;5.846;2023-07-31T13:14:44;7.47;;;3.03;;
54679;SDS011;40578;53.178;5.846;2023-07-31T13:17:09;7.43;;;2.50;;
54679;SDS011;40578;53.178;5.846;2023-07-31T13:19:35;6.90;;;2.87;;
54679;SDS011;40578;53.178;5.846;2023-07-31T13:22:01;8.93;;;2.40;;
54679;SDS011;40578;53.178;5.846;2023-07-31T13:24:26;12.73;;;3.00;;
54679;SDS011;40578;53.178;5.846;2023-07-31T13:26:52;7.50;;;3.00;;
54679;SDS011;40578;53.178;5.846;2023-07-31T13:29:17;9.50;;;3.00;;
54679;SDS011;40578;53.178;5.846;2023-07-31T13:31:43;7.40;;;2.27;;
54679;SDS011;40578;53.178;5.846;2023-07-31T13:34:08;8.20;;;2.80;;
54679;SDS011;40578;53.178;5.846;2023-07-31T13:36:34;12.03;;;3.00;;
54679;SDS011;40578;53.178;5.846;2023-07-31T13:39:02;6.82;;;2.75;;
54679;SDS011;40578;53.178;5.846;2023-07-31T13:41:28;8.40;;;2.78;;
54679;SDS011;40578;53.178;5.846;2023-07-31T13:43:53;7.47;;;3.27;;
54679;SDS011;40578;53.178;5.846;2023-07-31T13:46:19;6.30;;;3.10;;
54679;SDS011;40578;53.178;5.846;2023-07-31T13:48:45;10.90;;;3.67;;
54679;SDS011;40578;53.178;5.846;2023-07-31T13:51:10;7.70;;;2.90;;
54679;SDS011;40578;53.178;5.846;2023-07-31T13:53:36;7.97;;;3.33;;
54679;SDS011;40578;53.178;5.846;2023-07-31T13:56:01;7.80;;;3.13;;
54679;SDS011;40578;53.178;5.846;2023-07-31T13:58:27;10.23;;;3.10;;
54679;SDS011;40578;53.178;5.846;2023-07-31T14:00:53;10.10;;;3.33;;
54679;SDS011;40578;53.178;5.846;2023-07-31T14:03:18;8.33;;;3.47;;
54679;SDS011;40578;53.178;5.846;2023-07-31T14:05:44;10.43;;;3.60;;
54679;SDS011;40578;53.178;5.846;2023-07-31T14:08:09;9.63;;;3.90;;
54679;SDS011;40578;53.178;5.846;2023-07-31T14:10:35;9.20;;;3.43;;
54679;SDS011;40578;53.178;5.846;2023-07-31T14:13:00;9.13;;;3.70;;
54679;SDS011;40578;53.178;5.846;2023-07-31T14:15:26;7.97;;;3.63;;
54679;SDS011;40578;53.178;5.846;2023-07-31T14:17:51;10.80;;;3.90;;
54679;SDS011;40578;53.178;5.846;2023-07-31T14:20:17;11.00;;;3.80;;
54679;SDS011;40578;53.178;5.846;2023-07-31T14:22:43;8.00;;;3.10;;
54679;SDS011;40578;53.178;5.846;2023-07-31T14:25:08;9.20;;;3.20;;
54679;SDS011;40578;53.178;5.846;2023-07-31T14:27:35;7.05;;;2.90;;
54679;SDS011;40578;53.178;5.846;2023-07-31T14:30:01;7.13;;;3.22;;
54679;SDS011;40578;53.178;5.846;2023-07-31T14:32:27;10.40;;;3.38;;
54679;SDS011;40578;53.178;5.846;2023-07-31T14:34:53;9.50;;;3.10;;
54679;SDS011;40578;53.178;5.846;2023-07-31T14:39:45;13.45;;;2.88;;
54679;SDS011;40578;53.178;5.846;2023-07-31T14:42:10;10.87;;;3.10;;
54679;SDS011;40578;53.178;5.846;2023-07-31T14:44:36;9.67;;;3.00;;
54679;SDS011;40578;53.178;5.846;2023-07-31T14:47:02;10.03;;;3.10;;
54679;SDS011;40578;53.178;5.846;2023-07-31T14:49:27;11.10;;;3.10;;
54679;SDS011;40578;53.178;5.846;2023-07-31T14:51:53;7.17;;;2.40;;
54679;SDS011;40578;53.178;5.846;2023-07-31T14:54:19;9.17;;;2.73;;
54679;SDS011;40578;53.178;5.846;2023-07-31T14:56:45;8.65;;;2.80;;
54679;SDS011;40578;53.178;5.846;2023-07-31T14:59:11;12.03;;;3.87;;
54679;SDS011;40578;53.178;5.846;2023-07-31T15:01:37;11.40;;;3.27;;
54679;SDS011;40578;53.178;5.846;2023-07-31T15:04:03;8.73;;;2.88;;
54679;SDS011;40578;53.178;5.846;2023-07-31T15:06:28;12.00;;;3.10;;
54679;SDS011;40578;53.178;5.846;2023-07-31T15:08:54;9.57;;;2.83;;
54679;SDS011;40578;53.178;5.846;2023-07-31T15:11:20;7.40;;;2.80;;
54679;SDS011;40578;53.178;5.846;2023-07-31T15:13:45;7.27;;;2.73;;
54679;SDS011;40578;53.178;5.846;2023-07-31T15:16:11;9.23;;;3.20;;
54679;SDS011;40578;53.178;5.846;2023-07-31T15:18:36;10.63;;;2.67;;
54679;SDS011;40578;53.178;5.846;2023-07-31T15:21:02;9.67;;;2.87;;